Time;durP1;ratioP1;P1;durP2;ratioP2;P2;SDS_P1;SDS_P2;PMS_P1;PMS_P2;Temp;Humidity;BMP_temperature;BMP_pressure;BME280_temperature;BME280_humidity;BME280_pressure;Samples;Min_cycle;Max_cycle;Signal;HPM_P1;HPM_P2
2023/12/04 00:05:03;;;;;;;1.25;1.13;;;;;;;18.83;33.16;101109.16;16112465;19;130313;-49
2023/12/04 00:10:25;;;;;;;2.25;1.23;;;;;;;18.81;33.02;101102.19;16110444;19;131680;-51
2023/12/04 00:15:47;;;;;;;1.85;1.20;;;;;;;18.78;33.22;101089.63;16108161;19;130072;-50
2023/12/04 00:21:09;;;;;;;2.88;1.10;;;;;;;18.74;32.95;101083.75;16109983;19;130777;-51
2023/12/04 00:26:31;;;;;;;2.08;1.30;;;;;;;18.71;32.99;101069.53;16110952;19;131136;-48
2023/12/04 00:31:53;;;;;;;2.53;1.55;;;;;;;18.69;33.01;101072.56;16109377;19;131132;-45
2023/12/04 00:37:15;;;;;;;2.03;1.10;;;;;;;18.67;33.17;101065.56;16107072;19;131759;-49
2023/12/04 00:42:37;;;;;;;1.70;1.23;;;;;;;18.64;33.19;101066.91;16104657;19;131052;-44
2023/12/04 00:48:00;;;;;;;2.03;1.13;;;;;;;18.60;32.71;101052.69;16111005;19;134670;-50
2023/12/04 00:53:22;;;;;;;1.38;0.90;;;;;;;18.58;32.81;101046.53;16117130;19;129547;-53
2023/12/04 00:58:44;;;;;;;1.42;1.10;;;;;;;18.55;32.95;101041.47;16111913;19;129978;-49
2023/12/04 01:04:06;;;;;;;1.95;1.15;;;;;;;18.53;33.26;101034.50;16108208;19;130008;-48
2023/12/04 01:09:28;;;;;;;1.13;0.88;;;;;;;18.50;32.95;101030.31;16102197;19;131000;-48
2023/12/04 01:14:50;;;;;;;1.30;0.98;;;;;;;18.46;33.14;101024.38;16095996;19;131030;-48
2023/12/04 01:20:13;;;;;;;1.92;0.95;;;;;;;18.43;33.13;101016.56;16100174;19;132096;-47
2023/12/04 01:25:34;;;;;;;1.02;0.95;;;;;;;18.42;32.98;101020.44;16103094;19;130263;-51
2023/12/04 01:30:56;;;;;;;0.95;0.80;;;;;;;18.39;33.18;101020.91;16119567;19;128994;-52
2023/12/04 01:36:19;;;;;;;1.50;1.00;;;;;;;18.37;33.16;101011.97;16122897;19;129585;-52
2023/12/04 01:41:42;;;;;;;1.90;1.17;;;;;;;18.36;33.23;101001.13;16118509;19;131587;-49
2023/12/04 01:47:04;;;;;;;1.27;0.90;;;;;;;18.32;32.93;100986.94;16116012;19;131208;-49
2023/12/04 01:52:26;;;;;;;1.00;0.82;;;;;;;18.30;33.29;100986.34;16119546;19;131194;-52
2023/12/04 01:57:48;;;;;;;1.27;0.95;;;;;;;18.28;33.08;100980.19;16118159;19;130075;-53
2023/12/04 02:03:10;;;;;;;1.55;0.85;;;;;;;18.25;32.81;100980.66;16116692;19;130927;-55
2023/12/04 02:08:32;;;;;;;1.40;1.00;;;;;;;18.23;32.94;100977.28;16119221;19;129546;-52
2023/12/04 02:13:55;;;;;;;1.95;0.90;;;;;;;18.21;33.03;100963.69;16119222;19;131605;-49
2023/12/04 02:19:17;;;;;;;2.80;0.80;;;;;;;18.19;32.91;100965.03;16115709;19;130653;-52
2023/12/04 02:24:40;;;;;;;0.90;0.80;;;;;;;18.17;32.85;100948.66;16120586;19;134047;-51
2023/12/04 02:30:05;;;;;;;2.15;1.00;;;;;;;18.14;32.69;100947.22;16119824;19;129661;-49
2023/12/04 02:35:32;;;;;;;1.77;0.90;;;;;;;18.15;32.56;100937.00;16118254;19;129771;-54
2023/12/04 02:40:55;;;;;;;1.00;0.90;;;;;;;18.12;32.99;100932.75;16113930;19;132939;-52
2023/12/04 02:46:17;;;;;;;1.05;0.88;;;;;;;18.10;32.86;100926.63;16104969;19;129862;-54
2023/12/04 02:51:42;;;;;;;0.80;0.70;;;;;;;18.09;32.53;100922.16;16108784;19;131285;-54
2023/12/04 02:57:04;;;;;;;0.98;0.80;;;;;;;18.07;32.87;100901.34;16115371;19;130244;-51
2023/12/04 03:02:26;;;;;;;1.42;0.70;;;;;;;18.05;32.66;100887.78;16110759;19;129495;-52
2023/12/04 03:07:48;;;;;;;0.80;0.80;;;;;;;18.02;32.48;100877.19;16112961;19;130201;-52
2023/12/04 03:13:10;;;;;;;0.70;0.60;;;;;;;18.02;32.56;100865.28;16108839;19;129504;-47
2023/12/04 03:18:32;;;;;;;0.68;0.60;;;;;;;18.01;32.87;100864.41;16110947;19;129557;-52
2023/12/04 03:23:54;;;;;;;0.70;0.63;;;;;;;17.99;32.79;100859.13;16114051;19;130461;-51
2023/12/04 03:29:16;;;;;;;2.15;0.60;;;;;;;17.97;32.35;100858.53;16105549;19;130218;-52
2023/12/04 03:34:38;;;;;;;1.45;0.80;;;;;;;17.94;32.38;100842.41;16111991;19;130959;-49
2023/12/04 03:40:00;;;;;;;1.13;0.80;;;;;;;17.93;32.44;100834.34;16109760;19;131042;-49
2023/12/04 03:45:22;;;;;;;1.48;0.70;;;;;;;17.91;32.36;100829.03;16106845;19;130407;-46
2023/12/04 03:50:44;;;;;;;0.70;0.70;;;;;;;17.90;32.32;100813.56;16104457;19;133603;-45
2023/12/04 03:56:07;;;;;;;0.80;0.65;;;;;;;17.88;32.51;100801.03;16106328;19;129342;-47
2023/12/04 04:01:29;;;;;;;1.05;0.88;;;;;;;17.85;32.35;100803.19;16103763;19;131189;-52
2023/12/04 04:06:52;;;;;;;0.90;0.70;;;;;;;17.83;32.36;100785.16;16109577;19;129435;-53
2023/12/04 04:12:14;;;;;;;0.95;0.60;;;;;;;17.81;32.25;100771.56;16107977;19;130209;-50
2023/12/04 04:17:36;;;;;;;0.70;0.70;;;;;;;17.81;32.47;100771.56;16109823;19;129901;-50
2023/12/04 04:22:58;;;;;;;0.98;0.77;;;;;;;17.79;32.59;100754.38;16103902;19;131772;-50
2023/12/04 04:28:20;;;;;;;0.95;0.65;;;;;;;17.78;32.24;100752.69;16109724;19;131312;-51
2023/12/04 04:33:42;;;;;;;0.77;0.70;;;;;;;17.75;32.53;100744.88;16103498;19;130283;-50
2023/12/04 04:39:05;;;;;;;0.80;0.68;;;;;;;17.74;32.28;100754.25;16109152;19;129964;-50
2023/12/04 04:44:27;;;;;;;0.95;0.80;;;;;;;17.73;32.16;100758.09;16102709;19;131751;-53
2023/12/04 04:49:49;;;;;;;1.00;0.85;;;;;;;17.73;31.95;100757.28;16107152;19;130625;-51
2023/12/04 04:55:11;;;;;;;1.30;0.90;;;;;;;17.71;32.17;100746.47;16099408;19;130483;-49
2023/12/04 05:00:52;;;;;;;1.20;0.90;;;;;;;17.70;32.08;100742.00;16103837;19;130652;-50
2023/12/04 05:06:14;;;;;;;0.90;0.80;;;;;;;17.68;31.77;100724.81;16109755;19;135322;-48
2023/12/04 05:11:36;;;;;;;1.50;0.98;;;;;;;17.66;31.94;100713.16;16104965;19;131938;-47
2023/12/04 05:16:58;;;;;;;0.93;0.82;;;;;;;17.65;31.85;100714.22;16103671;19;130888;-48
2023/12/04 05:22:20;;;;;;;0.98;0.82;;;;;;;17.63;31.91;100705.31;16099809;19;130961;-47
2023/12/04 05:27:42;;;;;;;1.52;1.20;;;;;;;17.61;32.10;100688.13;16099890;19;130873;-49
2023/12/04 05:33:04;;;;;;;0.93;0.73;;;;;;;17.60;31.75;100687.31;16100233;19;130506;-47
2023/12/04 05:38:26;;;;;;;1.30;0.90;;;;;;;17.58;31.73;100683.94;16100262;19;131119;-51
2023/12/04 05:43:48;;;;;;;1.05;0.93;;;;;;;17.57;31.54;100682.25;16103090;19;129388;-49
2023/12/04 05:49:10;;;;;;;0.88;0.73;;;;;;;17.54;31.98;100683.59;16096382;19;132397;-50
2023/12/04 05:54:32;;;;;;;4.88;1.00;;;;;;;17.52;31.82;100680.19;16091199;19;130389;-46
2023/12/04 05:59:54;;;;;;;1.27;0.90;;;;;;;17.52;31.52;100680.19;16093385;19;132365;-48
2023/12/04 06:05:16;;;;;;;1.15;0.90;;;;;;;17.51;31.82;100678.50;16090969;19;131047;-49
2023/12/04 06:10:38;;;;;;;0.77;0.77;;;;;;;17.50;31.86;100671.28;16095434;19;130410;-49
2023/12/04 06:16:01;;;;;;;1.10;0.88;;;;;;;17.50;31.49;100660.22;16112998;19;129778;-50
2023/12/04 06:21:23;;;;;;;1.23;0.90;;;;;;;17.49;31.50;100644.72;16116230;19;131198;-45
2023/12/04 06:26:49;;;;;;;0.90;0.80;;;;;;;17.49;31.47;100639.19;16114010;19;130562;-47
2023/12/04 06:32:12;;;;;;;1.55;0.90;;;;;;;17.49;31.78;100641.97;16112385;19;129538;-45
2023/12/04 06:37:36;;;;;;;1.13;0.85;;;;;;;17.50;31.79;100615.97;16116577;19;131375;-45
2023/12/04 06:42:58;;;;;;;1.15;0.90;;;;;;;17.48;31.80;100623.69;16111667;19;131577;-47
2023/12/04 06:48:21;;;;;;;1.15;0.85;;;;;;;17.49;31.34;100617.06;16116210;19;130304;-49
2023/12/04 06:53:43;;;;;;;1.92;1.00;;;;;;;17.48;31.80;100601.56;16114954;19;130887;-46
2023/12/04 06:59:05;;;;;;;6.65;0.90;;;;;;;17.45;31.80;100607.59;16106387;19;131952;-56
2023/12/04 07:04:27;;;;;;;3.42;0.95;;;;;;;17.44;31.88;100616.97;16113183;19;130034;-44
2023/12/04 07:09:49;;;;;;;3.78;1.02;;;;;;;17.45;31.74;100612.28;16113168;19;132064;-47
2023/12/04 07:15:11;;;;;;;7.20;1.20;;;;;;;17.44;31.87;100618.88;16115434;19;129517;-48
2023/12/04 07:20:33;;;;;;;2.45;0.93;;;;;;;17.42;31.79;100613.63;16114504;19;129781;-46
2023/12/04 07:25:55;;;;;;;1.95;1.10;;;;;;;17.40;31.79;100601.97;16115154;19;129516;-45
2023/12/04 07:31:17;;;;;;;3.10;1.00;;;;;;;17.39;31.76;100591.97;16116982;19;129723;-49
2023/12/04 07:36:39;;;;;;;1.95;1.13;;;;;;;17.36;31.76;100581.41;16117092;19;130621;-48
2023/12/04 07:42:01;;;;;;;2.80;1.10;;;;;;;17.33;31.21;100579.16;16115840;19;130089;-48
2023/12/04 07:47:33;;;;;;;1.83;1.10;;;;;;;17.31;31.51;100573.84;16112384;19;130149;-48
2023/12/04 07:52:55;;;;;;;2.58;1.13;;;;;;;17.30;31.29;100576.88;16114307;19;130466;-48
2023/12/04 07:58:18;;;;;;;2.67;1.00;;;;;;;17.28;31.60;100563.31;16110727;19;129255;-46
2023/12/04 08:03:40;;;;;;;1.42;1.05;;;;;;;17.24;31.36;100551.88;16109288;19;129734;-47
2023/12/04 08:09:02;;;;;;;2.35;1.20;;;;;;;17.24;31.15;100551.88;16111640;19;130538;-49
2023/12/04 08:14:24;;;;;;;2.38;1.10;;;;;;;17.21;31.40;100544.09;16109768;19;131146;-47
2023/12/04 08:19:46;;;;;;;2.10;1.10;;;;;;;17.20;31.00;100544.31;16106791;19;130456;-46
2023/12/04 08:25:13;;;;;;;1.77;1.00;;;;;;;17.19;31.35;100551.78;16108289;19;131503;-47
2023/12/04 08:30:35;;;;;;;2.58;1.10;;;;;;;17.18;30.96;100546.50;16109368;19;130403;-46
2023/12/04 08:35:57;;;;;;;1.88;1.15;;;;;;;17.15;30.97;100542.28;16113053;19;129596;-45
2023/12/04 08:41:19;;;;;;;1.23;1.00;;;;;;;17.14;31.32;100532.31;16113054;19;129465;-46
2023/12/04 08:46:43;;;;;;;1.88;1.00;;;;;;;17.12;30.99;100520.66;16111314;19;129349;-48
2023/12/04 08:52:05;;;;;;;1.75;0.90;;;;;;;17.11;30.98;100516.22;16108079;19;130645;-44
2023/12/04 08:57:27;;;;;;;2.83;1.02;;;;;;;17.10;30.79;100505.44;16105498;19;130566;-44
2023/12/04 09:02:49;;;;;;;1.75;1.00;;;;;;;17.08;30.82;100508.44;16107128;19;130018;-46
2023/12/04 09:08:27;;;;;;;1.73;1.10;;;;;;;17.08;30.89;100505.69;16107875;19;130309;-47
2023/12/04 09:14:00;;;;;;;1.45;0.90;;;;;;;17.06;30.94;100494.03;16104881;19;134584;-44
2023/12/04 09:19:22;;;;;;;1.70;1.20;;;;;;;17.05;30.71;100495.13;16107000;19;129914;-43
2023/12/04 09:24:44;;;;;;;3.28;1.13;;;;;;;17.05;30.56;100503.41;16106061;19;130933;-46
2023/12/04 09:30:07;;;;;;;3.33;1.10;;;;;;;17.03;30.50;100494.50;16103497;19;129631;-46
2023/12/04 09:35:29;;;;;;;1.20;0.90;;;;;;;17.03;30.92;100494.50;16103784;19;129771;-45
2023/12/04 09:40:52;;;;;;;2.25;0.95;;;;;;;17.02;30.63;100487.31;16105794;19;130837;-45
2023/12/04 09:46:17;;;;;;;1.45;1.00;;;;;;;17.01;30.62;100477.34;16104567;19;129580;-49
2023/12/04 09:51:38;;;;;;;1.00;0.88;;;;;;;16.99;30.45;100490.56;16120650;19;131428;-47
2023/12/04 09:57:01;;;;;;;1.10;0.90;;;;;;;16.98;30.60;100484.19;16123363;19;130364;-45
2023/12/04 10:02:24;;;;;;;1.58;1.05;;;;;;;16.98;30.70;100483.38;16122144;19;129562;-49
2023/12/04 10:07:46;;;;;;;1.27;1.00;;;;;;;16.96;30.54;100468.97;16122307;19;129429;-47
2023/12/04 10:13:08;;;;;;;1.67;1.15;;;;;;;16.93;30.91;100467.50;16120673;19;129767;-46
2023/12/04 10:18:31;;;;;;;1.42;1.00;;;;;;;16.93;30.34;100448.16;16121327;19;131156;-48
2023/12/04 10:23:53;;;;;;;1.15;0.90;;;;;;;16.92;30.59;100452.88;16118524;19;129972;-45
2023/12/04 10:29:15;;;;;;;1.58;1.02;;;;;;;16.91;30.36;100433.78;16121277;19;130165;-50
2023/12/04 10:34:38;;;;;;;2.47;1.00;;;;;;;16.90;30.34;100421.06;16122190;19;130473;-45
2023/12/04 10:40:00;;;;;;;1.75;1.00;;;;;;;16.89;30.64;100403.63;16118480;19;129909;-48
2023/12/04 10:45:24;;;;;;;1.80;1.10;;;;;;;16.89;30.60;100388.97;16116872;19;129325;-44
2023/12/04 10:50:48;;;;;;;0.98;0.90;;;;;;;16.88;30.49;100388.13;16114488;19;131048;-48
2023/12/04 10:56:19;;;;;;;1.08;0.82;;;;;;;16.89;30.59;100351.13;16116410;19;131585;-50
2023/12/04 11:01:44;;;;;;;1.67;0.95;;;;;;;16.86;30.37;100351.63;16117141;19;131931;-44
2023/12/04 11:07:09;;;;;;;1.52;1.00;;;;;;;16.86;30.36;100329.50;16116483;19;129745;-48
2023/12/04 11:12:32;;;;;;;1.50;0.95;;;;;;;16.86;30.33;100323.16;16117709;19;129496;-45
2023/12/04 11:17:59;;;;;;;1.52;1.10;;;;;;;16.85;30.43;100318.72;16106536;19;134247;-46
2023/12/04 11:23:22;;;;;;;2.03;1.42;;;;;;;16.83;30.30;100313.47;16109517;19;131033;-44
2023/12/04 11:28:45;;;;;;;1.45;1.10;;;;;;;16.82;30.45;100295.22;16113115;19;129639;-46
2023/12/04 11:34:09;;;;;;;2.83;1.40;;;;;;;16.83;30.46;100284.97;16113963;19;130290;-45
2023/12/04 11:39:34;;;;;;;1.40;1.08;;;;;;;16.83;30.20;100273.94;16115708;19;129567;-45
2023/12/04 11:44:58;;;;;;;1.67;1.00;;;;;;;16.82;30.04;100273.09;16116593;19;130245;-47
2023/12/04 11:50:21;;;;;;;2.15;1.05;;;;;;;16.79;30.17;100270.84;16113311;19;130499;-47
2023/12/04 11:55:43;;;;;;;1.73;1.33;;;;;;;16.77;30.56;100254.53;16111998;19;128867;-47
2023/12/04 12:01:05;;;;;;;1.60;1.00;;;;;;;16.76;30.28;100241.78;16113185;19;131528;-49
2023/12/04 12:06:27;;;;;;;1.40;1.10;;;;;;;16.75;30.34;100228.22;16112729;19;130096;-46
2023/12/04 12:11:49;;;;;;;1.67;1.10;;;;;;;16.73;30.58;100214.66;16111117;19;129710;-47
2023/12/04 12:17:11;;;;;;;1.50;1.05;;;;;;;16.72;30.10;100195.59;16110338;19;129580;-43
2023/12/04 12:22:34;;;;;;;1.40;1.13;;;;;;;16.70;30.53;100195.81;16111020;19;131213;-46
2023/12/04 12:27:56;;;;;;;1.55;1.10;;;;;;;16.68;30.26;100180.59;16112913;19;130246;-47
2023/12/04 12:33:20;;;;;;;1.13;1.02;;;;;;;16.67;30.32;100181.69;16112313;19;129753;-44
2023/12/04 12:38:49;;;;;;;2.25;1.20;;;;;;;16.66;30.62;100177.22;16109369;19;129603;-48
2023/12/04 12:44:11;;;;;;;2.38;1.30;;;;;;;16.65;30.31;100158.97;16109448;19;129577;-48
2023/12/04 12:49:35;;;;;;;2.78;1.20;;;;;;;16.62;30.68;100158.38;16108715;19;130583;-45
2023/12/04 12:55:04;;;;;;;2.60;1.08;;;;;;;16.61;30.53;100145.69;16112299;19;129808;-44
2023/12/04 13:00:27;;;;;;;1.38;1.27;;;;;;;16.61;30.50;100145.69;16110723;19;131777;-45
2023/12/04 13:05:50;;;;;;;1.42;1.10;;;;;;;16.63;30.45;100134.38;16111076;19;130644;-46
2023/12/04 13:11:12;;;;;;;1.67;1.20;;;;;;;16.62;30.47;100111.44;16109406;19;129874;-45
2023/12/04 13:16:34;;;;;;;1.08;0.98;;;;;;;16.62;30.36;100105.09;16108486;19;131342;-45
2023/12/04 13:21:56;;;;;;;1.33;1.10;;;;;;;16.62;30.29;100092.09;16107937;19;129151;-47
2023/12/04 13:27:18;;;;;;;1.08;0.95;;;;;;;16.61;30.69;100082.19;16122417;19;129713;-44
2023/12/04 13:32:40;;;;;;;1.27;1.05;;;;;;;16.62;30.36;100071.94;16124332;19;132043;-47
2023/12/04 13:38:02;;;;;;;1.52;1.13;;;;;;;16.60;30.51;100072.22;16126428;19;129744;-47
2023/12/04 13:49:04;;;;;;;1.17;0.90;;;;;;;16.58;30.81;100051.44;16124781;19;129410;-47
2023/12/04 13:54:43;;;;;;;1.42;1.10;;;;;;;16.57;30.94;100045.09;16123907;19;129781;-46
2023/12/04 14:00:05;;;;;;;2.03;1.00;;;;;;;16.56;30.70;100043.44;16123065;19;129415;-46
2023/12/04 14:05:27;;;;;;;1.80;1.00;;;;;;;16.54;30.80;100034.56;16121133;19;131220;-44
2023/12/04 14:10:50;;;;;;;2.05;1.02;;;;;;;16.53;30.57;100024.59;16119986;19;129617;-48
2023/12/04 14:16:12;;;;;;;1.92;0.93;;;;;;;16.52;31.12;100013.81;16120790;19;129400;-49
2023/12/04 14:21:34;;;;;;;3.70;1.20;;;;;;;16.51;31.07;100012.16;16123826;19;129751;-49
2023/12/04 14:26:57;;;;;;;1.30;1.00;;;;;;;16.49;31.00;100001.38;16123012;19;129521;-48
2023/12/04 14:32:19;;;;;;;2.90;1.30;;;;;;;16.47;31.08;99995.25;16121894;19;130412;-48
2023/12/04 14:37:45;;;;;;;4.07;1.40;;;;;;;16.46;30.79;99988.06;16121877;19;128909;-46
2023/12/04 14:43:10;;;;;;;2.72;1.42;;;;;;;16.43;31.27;99978.34;16119338;19;131253;-45
2023/12/04 14:48:32;;;;;;;1.95;0.90;;;;;;;16.42;31.31;99971.19;16120246;19;129403;-46
2023/12/04 15:16:31;;;;;;;3.72;0.90;;;;;;;16.36;31.17;99938.25;16108016;19;129397;-49
2023/12/04 15:22:05;;;;;;;2.38;1.10;;;;;;;16.36;31.37;99938.25;16101803;19;129596;-46
2023/12/04 15:27:27;;;;;;;2.97;1.30;;;;;;;16.34;31.44;99932.13;16102251;19;130725;-45
2023/12/04 15:32:49;;;;;;;6.03;1.10;;;;;;;16.29;31.50;99919.94;16113153;19;130825;-49
2023/12/04 15:38:11;;;;;;;2.03;1.25;;;;;;;16.36;30.88;99916.97;16115557;19;130354;-42
2023/12/04 15:43:33;;;;;;;2.13;1.20;;;;;;;16.52;30.75;99909.72;16115835;19;129604;-44
2023/12/04 15:48:55;;;;;;;2.03;1.08;;;;;;;16.72;30.99;99913.88;16113082;19;129615;-46
2023/12/04 15:54:17;;;;;;;1.45;0.95;;;;;;;17.02;30.38;99912.53;16116007;19;129568;-46
2023/12/04 15:59:39;;;;;;;2.58;1.10;;;;;;;17.49;30.43;99906.34;16114018;19;129733;-49
2023/12/04 16:05:01;;;;;;;3.08;1.00;;;;;;;18.07;29.89;99902.09;16114711;19;129284;-45
2023/12/04 16:10:24;;;;;;;3.38;0.80;;;;;;;18.57;29.32;99880.50;16107527;19;129468;-44
2023/12/04 16:15:48;;;;;;;2.80;1.02;;;;;;;18.99;28.87;99871.19;16111358;19;129519;-45
2023/12/04 16:21:10;;;;;;;3.15;0.90;;;;;;;19.28;28.90;99873.47;16109142;19;129655;-43
2023/12/04 16:26:34;;;;;;;2.47;0.75;;;;;;;19.40;28.68;99875.94;16108695;19;129753;-48
2023/12/04 16:31:56;;;;;;;2.22;0.80;;;;;;;19.39;28.60;99868.75;16107273;19;129798;-44
2023/12/04 16:37:18;;;;;;;3.30;1.17;;;;;;;19.29;28.75;99857.66;16108898;19;129639;-44
2023/12/04 16:42:40;;;;;;;3.78;0.90;;;;;;;19.14;28.71;99866.75;16111184;19;134496;-46
2023/12/04 16:48:02;;;;;;;5.18;1.00;;;;;;;18.96;29.26;99857.03;16109269;19;130792;-44
2023/12/04 16:53:24;;;;;;;4.50;1.00;;;;;;;18.79;29.52;99848.97;16110562;19;130386;-47
2023/12/04 16:58:47;;;;;;;2.75;1.20;;;;;;;18.61;29.24;99840.91;16107664;19;129620;-45
2023/12/04 17:04:09;;;;;;;1.88;0.80;;;;;;;18.45;29.93;99840.03;16099928;19;129570;-45
2023/12/04 17:09:31;;;;;;;5.55;1.80;;;;;;;18.29;29.63;99830.78;16102331;19;129459;-43
2023/12/04 17:14:53;;;;;;;3.92;1.20;;;;;;;18.23;30.00;99825.50;16103658;19;129557;-49
2023/12/04 17:20:15;;;;;;;4.28;1.20;;;;;;;18.31;29.73;99827.75;16107018;19;130990;-48
2023/12/04 17:25:37;;;;;;;2.47;0.90;;;;;;;18.45;29.84;99823.41;16109402;19;129599;-49
2023/12/04 17:30:59;;;;;;;1.85;1.00;;;;;;;18.62;29.88;99827.88;16107888;19;129440;-47
2023/12/04 17:36:21;;;;;;;2.72;1.17;;;;;;;18.76;29.51;99820.69;16104291;19;129591;-47
2023/12/04 17:41:45;;;;;;;2.83;1.50;;;;;;;18.83;29.79;99816.84;16106647;19;129855;-49
2023/12/04 17:47:08;;;;;;;4.80;1.70;;;;;;;18.94;29.60;99812.97;16103001;19;130070;-46
2023/12/04 17:52:31;;;;;;;4.95;1.52;;;;;;;19.24;29.35;99797.47;16107536;19;130726;-45
2023/12/04 17:57:53;;;;;;;2.92;1.30;;;;;;;19.64;29.37;99789.38;16104660;19;130148;-48
2023/12/04 18:03:19;;;;;;;3.45;1.45;;;;;;;20.03;28.90;99783.19;16098144;19;135262;-46
2023/12/04 18:08:42;;;;;;;10.50;1.63;;;;;;;20.41;28.44;99782.75;16104944;19;133975;-46
2023/12/04 18:14:04;;;;;;;5.53;1.63;;;;;;;20.69;28.48;99774.78;16123119;19;129876;-48
2023/12/04 18:19:26;;;;;;;11.10;1.65;;;;;;;20.79;28.78;99776.69;16121022;19;129610;-47
2023/12/04 18:24:49;;;;;;;5.90;1.70;;;;;;;20.82;28.67;99757.47;16115696;19;129822;-52
2023/12/04 18:30:13;;;;;;;5.88;1.60;;;;;;;20.76;28.88;99755.88;16119921;19;129306;-48
2023/12/04 18:35:35;;;;;;;5.50;1.53;;;;;;;20.60;28.86;99753.16;16121138;19;129413;-48
2023/12/04 18:40:59;;;;;;;6.82;1.85;;;;;;;20.42;29.61;99745.50;16119728;19;131670;-51
2023/12/04 18:46:24;;;;;;;10.95;1.90;;;;;;;20.19;29.86;99741.47;16112494;19;129854;-42
2023/12/04 18:51:46;;;;;;;;;;;;;;;19.96;30.09;99739.03;16115575;19;130094;-53
2023/12/04 18:57:08;;;;;;;3.67;1.63;;;;;;;19.83;30.33;99739.66;16117060;19;131511;-44
2023/12/04 19:02:30;;;;;;;5.25;1.75;;;;;;;19.83;30.21;99739.66;16117755;19;131223;-45
2023/12/04 19:07:53;;;;;;;6.47;1.63;;;;;;;20.02;30.32;99722.41;16116723;19;129314;-43
2023/12/04 19:13:15;;;;;;;3.25;1.42;;;;;;;20.29;30.15;99720.03;16118606;19;129669;-46
2023/12/04 19:18:37;;;;;;;9.80;1.77;;;;;;;20.56;30.15;99713.16;16116518;19;129907;-44
2023/12/04 19:24:00;;;;;;;2.75;1.55;;;;;;;20.84;29.94;99713.53;16114713;19;129557;-47
2023/12/04 19:29:22;;;;;;;6.03;1.70;;;;;;;21.03;29.48;99708.09;16113885;19;131421;-47
2023/12/04 19:34:50;;;;;;;4.93;1.40;;;;;;;21.22;29.36;99702.63;16114313;19;130472;-46
2023/12/04 19:40:13;;;;;;;7.43;1.58;;;;;;;21.37;29.48;99696.06;16113481;19;130957;-45
2023/12/04 19:45:35;;;;;;;6.32;1.52;;;;;;;21.51;29.42;99693.44;16114388;19;131230;-48
2023/12/04 19:51:03;;;;;;;;;;;;;;;21.59;29.23;99683.63;16111051;19;131980;-46
2023/12/04 19:56:25;;;;;;;5.47;1.38;;;;;;;21.71;29.21;99683.19;16113429;19;130532;-49
2023/12/04 20:01:47;;;;;;;4.47;1.38;;;;;;;21.77;29.29;99687.56;16113665;19;130132;-43
2023/12/04 20:07:09;;;;;;;6.45;1.40;;;;;;;21.87;29.57;99689.38;16112456;19;129737;-48
2023/12/04 20:12:31;;;;;;;8.55;1.45;;;;;;;21.97;29.50;99682.84;16113079;19;130776;-48
2023/12/04 20:17:53;;;;;;;4.75;1.45;;;;;;;22.05;29.44;99682.16;16112652;19;130002;-45
2023/12/04 20:23:17;;;;;;;2.80;1.25;;;;;;;22.06;29.05;99672.69;16112942;19;130149;-46
2023/12/04 20:28:41;;;;;;;3.60;1.20;;;;;;;22.02;29.44;99666.09;16109797;19;130377;-47
2023/12/04 20:34:03;;;;;;;5.80;1.35;;;;;;;21.93;29.42;99665.06;16108316;19;129500;-47
2023/12/04 20:39:26;;;;;;;3.17;1.20;;;;;;;21.76;29.64;99660.88;16105803;19;130607;-46
2023/12/04 20:44:48;;;;;;;8.48;1.70;;;;;;;21.58;30.30;99661.63;16112654;19;129571;-45
2023/12/04 20:50:10;;;;;;;3.28;1.33;;;;;;;21.35;30.59;99656.56;16114228;19;130600;-47
2023/12/04 20:55:32;;;;;;;7.43;1.55;;;;;;;21.15;30.66;99663.22;16108853;19;130613;-51
2023/12/04 21:00:54;;;;;;;4.68;1.40;;;;;;;21.04;30.64;99654.16;16111080;19;129773;-45
2023/12/04 21:06:16;;;;;;;8.32;1.40;;;;;;;21.00;30.90;99649.47;16104874;19;130475;-45
2023/12/04 21:11:38;;;;;;;9.15;1.88;;;;;;;20.87;30.65;99651.81;16109140;19;130172;-48
2023/12/04 21:17:00;;;;;;;6.80;1.35;;;;;;;20.72;30.67;99663.88;16105227;19;131241;-49
2023/12/04 21:22:22;;;;;;;9.70;1.70;;;;;;;20.56;30.70;99652.03;16105202;19;132097;-50
2023/12/04 21:27:44;;;;;;;5.47;1.90;;;;;;;20.44;30.60;99640.47;16101894;19;130036;-50
2023/12/04 21:33:06;;;;;;;3.75;1.20;;;;;;;20.31;30.76;99650.31;16099915;19;130667;-48
2023/12/04 21:38:28;;;;;;;2.95;1.30;;;;;;;20.15;31.01;99635.72;16106051;19;130164;-48
2023/12/04 21:43:51;;;;;;;2.58;1.20;;;;;;;20.02;31.33;99636.34;16110270;19;129615;-46
2023/12/04 21:49:13;;;;;;;6.57;1.50;;;;;;;19.86;31.48;99636.41;16120127;19;130665;-46
2023/12/04 21:54:35;;;;;;;5.63;1.33;;;;;;;19.72;31.47;99638.97;16123486;19;130662;-47
2023/12/04 21:59:58;;;;;;;6.00;2.10;;;;;;;19.62;31.75;99627.94;16122689;19;130163;-50
2023/12/04 22:05:19;;;;;;;1.65;1.00;;;;;;;19.52;31.53;99623.25;16120067;19;135586;-48
2023/12/04 22:10:42;;;;;;;4.15;1.30;;;;;;;19.43;31.46;99619.41;16120273;19;129630;-47
2023/12/04 22:16:04;;;;;;;3.13;1.33;;;;;;;19.35;31.92;99618.06;16119196;19;130211;-44
2023/12/04 22:21:27;;;;;;;2.13;1.10;;;;;;;19.22;31.72;99614.78;16116292;19;130132;-50
2023/12/04 22:26:49;;;;;;;1.65;1.20;;;;;;;19.14;31.73;99609.75;16118714;19;129773;-45
2023/12/04 22:32:12;;;;;;;2.95;1.23;;;;;;;19.05;31.97;99609.53;16116529;19;129765;-49
2023/12/04 22:37:34;;;;;;;2.17;1.25;;;;;;;18.98;32.14;99600.66;16117499;19;129641;-45
2023/12/04 22:42:55;;;;;;;2.25;1.30;;;;;;;;;;16117463;19;130853;-47
2023/12/04 22:48:18;;;;;;;2.03;1.00;;;;;;;18.87;31.82;99599.03;16115085;19;131161;-47
2023/12/04 22:53:40;;;;;;;2.80;1.20;;;;;;;18.79;32.11;99599.59;16118668;19;130784;-50
2023/12/04 22:59:02;;;;;;;2.92;0.98;;;;;;;18.71;32.08;99610.13;16119168;19;129825;-46
2023/12/04 23:04:24;;;;;;;3.45;1.45;;;;;;;18.64;32.04;99606.81;16112352;19;130587;-45
2023/12/04 23:09:47;;;;;;;2.08;1.23;;;;;;;18.61;32.46;99610.16;16117913;19;130161;-47
2023/12/04 23:15:09;;;;;;;2.00;1.17;;;;;;;18.55;32.09;99612.09;16114974;19;130795;-45
2023/12/04 23:20:31;;;;;;;2.10;1.05;;;;;;;18.52;32.58;99612.66;16116949;19;129253;-43
2023/12/04 23:25:53;;;;;;;3.00;1.27;;;;;;;18.48;32.50;99610.69;16116834;19;129573;-46
2023/12/04 23:31:15;;;;;;;3.15;1.02;;;;;;;18.42;32.62;99605.19;16116263;19;131528;-52
2023/12/04 23:36:37;;;;;;;2.03;1.00;;;;;;;18.38;32.68;99600.44;16113386;19;130903;-54
2023/12/04 23:41:59;;;;;;;2.30;1.30;;;;;;;18.31;32.28;99590.47;16115789;19;129387;-51
2023/12/04 23:47:21;;;;;;;2.38;1.48;;;;;;;18.27;32.75;99589.38;16111468;19;129365;-50
2023/12/04 23:52:43;;;;;;;1.95;1.20;;;;;;;18.24;32.56;99586.31;16113824;19;129750;-51
2023/12/04 23:58:05;;;;;;;3.30;1.20;;;;;;;18.19;32.44;99592.69;16113093;19;131162;-52
